Página principal
METAR-TAF:

METAR-TAF

Aeroportos :

Aeroporto de Auckland

Auckland, Nova Zelândia

latitude: 37-01S, longitude: 174-48E, altura: 7 m

Observação actual do tempo

O boletim foi feito há 49 minutos, às 00:30 UTC
Vento 10 kt de sudoeste
Temperatura 19°C
Humidade 64%
Pressão 1022 hPa
Visibilidade 10 km ou mais

METAR: NZAA 130030Z AUTO 23010KT 9999 NCD 19/12 Q1022 NOSIG

Hora: 14:19 (01:19 UTC)

Previsão

O boletim foi feito há 1 hora e 54 minutos, às 23:25 UTC
Previsão válida de 13 às 00 UTC a 14 às 00 UTC
Vento 12 kt de sudoeste
Visibilidade 10 km ou mais
Nuvens dispersasa uma altura de 3000 ft
Tornando-se
de 13 às 07 UTC a 13 às 09 UTC
Vento 2 kt com direcção variável
A partir de 13 às 2100 UTC
Vento 10 kt de es-nordeste
Visibilidade 10 km ou mais
Nuvens fragmentadasa uma altura de 2500 ft
aguaceiros fracos de chuva

TAF: NZAA 122325Z 1300/1400 22012KT 9999 SCT030 BECMG 1307/1309 VRB02KT FM132100 06010KT 9999 -SHRA BKN025

Observações e previsões do tempo de mais de 4000 aeroportos (mensagens METAR e TAF).

As estações disponíveis são os pontos amarelos e vermelhos sobre o mapa.

Mova o rato sobre o mapa para ver o nome da estação.

Depois clique no ponto para visualizar as observações e previsões meteorológicas.

Para alterar o mapa : clique nos botões verdes com uma cruz preta para aumentar o zoom; no botão verde com uma pitada de zoom; ou nas setas verdes para mapas adjacentes.


METAR-TAF: